Cooksville, Illinois
Current Conditions -  °F | °C
As of 11:56 AM on Saturday 22 Nov 2014 (Local Time) from KBMI Reporting Station
Overcast Overcast  
Wind Chill: 51°   Ceiling: 2200
Heat Index: 51°   Visibility: 10mi
Dew Point: 46°   Wind: 17mph
Humidity: 83%   Direction: 210°SSW
Pressure: 29.98"   Gusts: 26mph
Location:  40.54°N, 88.72°W
Report Text: KBMI 221756Z 21015G23KT 10SM OVC022 11/08 A2998 RMK AO2 58025 60000 T01050077 10105 20027 SLP160
Loading
Personal Weather Stations






























Interactive Weather Map New forecast layout! Learn more

10-Day Weather Forecast

Advertisements
Track Severe Weather on mobile